Terminal Aerodrome Forecast
Issued by NWS Wilmington, OH

Current Version | Previous Version | Graphics & Text | Print | Product List | Glossary On
Versions: 1 2 3 4 5 6 7 8 9 10 11 12 13 14 15 16 17 18 19 20 21 22 23 24 25 26
647
FTUS41 KILN 061500 AAA
TAFCVG
TAF AMD
KCVG 061500Z 0615/0718 16003KT 5SM BR SCT250
     FM061600 23008KT P6SM SCT060
     FM062300 19004KT P6SM SCT050
     FM071500 21010KT P6SM BKN150=

USA.gov is the U.S. government's official web portal to all federal, state and local government web resources and services.